Time;durP1;ratioP1;P1;durP2;ratioP2;P2;SDS_P1;SDS_P2;PMS_P1;PMS_P2;Temp;Humidity;BMP_temperature;BMP_pressure;BME280_temperature;BME280_humidity;BME280_pressure;Samples;Min_cycle;Max_cycle;Signal;HPM_P1;HPM_P2
2023/12/21 00:02:00;;;;;;;18.58;2.67;;;;;;;9.61;100.00;100142.06;10536083;27;20052;-60
2023/12/21 00:07:22;;;;;;;14.63;2.80;;;;;;;9.62;100.00;100130.81;10546960;28;20044;-60
2023/12/21 00:12:44;;;;;;;21.38;2.78;;;;;;;9.62;100.00;100112.72;10551807;28;20044;-61
2023/12/21 00:18:05;;;;;;;14.10;2.35;;;;;;;9.61;100.00;100098.16;10536329;28;20052;-61
2023/12/21 00:23:27;;;;;;;16.73;2.30;;;;;;;9.62;100.00;100086.91;10545621;28;20051;-60
2023/12/21 00:28:49;;;;;;;13.65;2.22;;;;;;;9.59;100.00;100087.88;10532560;28;20039;-61
2023/12/21 00:34:10;;;;;;;16.05;2.45;;;;;;;9.63;100.00;100078.28;10545454;27;20054;-60
2023/12/21 00:39:34;;;;;;;15.05;2.20;;;;;;;9.62;100.00;100080.00;10529344;28;20681;-60
2023/12/21 00:44:56;;;;;;;15.93;2.75;;;;;;;9.63;100.00;100060.19;10544199;28;20666;-61
2023/12/21 00:50:18;;;;;;;16.25;2.53;;;;;;;9.68;100.00;100051.38;10549073;27;20055;-60
2023/12/21 00:55:39;;;;;;;20.08;2.85;;;;;;;9.71;100.00;100058.13;10545021;28;20048;-60
2023/12/21 01:01:01;;;;;;;18.40;2.50;;;;;;;9.69;100.00;100058.19;10544394;28;20086;-60
2023/12/21 01:06:23;;;;;;;23.52;3.03;;;;;;;9.69;100.00;100039.25;10527959;28;20048;-60
2023/12/21 01:11:44;;;;;;;22.00;3.13;;;;;;;9.74;100.00;100037.38;10544617;28;20047;-60
2023/12/21 01:17:06;;;;;;;23.55;3.35;;;;;;;9.71;100.00;100021.97;10542235;28;20075;-60
2023/12/21 01:22:28;;;;;;;25.88;3.30;;;;;;;9.67;100.00;100010.09;10547067;28;20046;-60
2023/12/21 01:27:49;;;;;;;26.20;3.33;;;;;;;9.67;100.00;99994.59;10540659;28;20051;-60
2023/12/21 01:33:11;;;;;;;22.02;3.97;;;;;;;9.63;100.00;99982.69;10542998;28;20786;-60
2023/12/21 01:38:34;;;;;;;17.35;3.20;;;;;;;9.65;100.00;99965.41;10542583;28;20116;-60
2023/12/21 01:43:56;;;;;;;15.27;3.58;;;;;;;9.65;100.00;99955.06;10537998;28;20051;-61
2023/12/21 01:49:19;;;;;;;22.40;3.75;;;;;;;9.66;100.00;99949.00;10539423;28;20051;-60
2023/12/21 01:54:41;;;;;;;16.65;3.42;;;;;;;9.66;100.00;99956.75;10531452;28;20063;-60
2023/12/21 02:00:03;;;;;;;22.83;3.80;;;;;;;9.66;100.00;99930.91;10544290;27;20079;-60
2023/12/21 02:05:25;;;;;;;20.98;3.05;;;;;;;9.69;100.00;99928.19;10539518;28;20054;-60
2023/12/21 02:10:46;;;;;;;20.67;3.35;;;;;;;9.64;100.00;99912.91;10537030;28;20507;-60
2023/12/21 02:16:14;;;;;;;15.35;3.08;;;;;;;9.65;100.00;99898.25;10530403;27;20124;-60
2023/12/21 02:21:39;;;;;;;19.00;3.00;;;;;;;9.63;100.00;99881.97;10529525;28;20399;-61
2023/12/21 02:27:00;;;;;;;12.63;2.90;;;;;;;9.60;100.00;99874.34;10556394;27;20047;-60
2023/12/21 02:32:22;;;;;;;14.45;2.60;;;;;;;9.66;100.00;99858.59;10539565;27;20139;-61
2023/12/21 02:37:44;;;;;;;6.88;2.20;;;;;;;9.63;100.00;99854.38;10532820;28;20085;-61
2023/12/21 02:43:06;;;;;;;17.15;2.67;;;;;;;9.64;100.00;99850.06;10541624;28;20062;-60
2023/12/21 02:48:28;;;;;;;9.25;2.58;;;;;;;9.66;100.00;99833.59;10534103;28;20043;-60
2023/12/21 02:53:49;;;;;;;11.80;3.00;;;;;;;9.68;100.00;99830.97;10539122;28;20476;-60
2023/12/21 02:59:11;;;;;;;10.38;2.70;;;;;;;9.69;100.00;99812.81;10543314;28;20051;-60
2023/12/21 03:04:33;;;;;;;7.75;2.53;;;;;;;9.66;100.00;99797.44;10540565;28;20051;-61
2023/12/21 03:09:55;;;;;;;17.30;3.30;;;;;;;9.68;100.00;99785.31;10534127;28;20055;-61
2023/12/21 03:15:17;;;;;;;11.43;2.88;;;;;;;9.68;100.00;99774.13;10538950;28;20055;-61
2023/12/21 03:20:39;;;;;;;16.90;3.30;;;;;;;9.71;100.00;99740.41;10541007;28;20048;-60
2023/12/21 03:26:00;;;;;;;11.38;3.22;;;;;;;9.72;100.00;99734.34;10535132;28;20501;-61
2023/12/21 03:31:22;;;;;;;12.40;2.85;;;;;;;9.74;100.00;99729.97;10529433;28;20062;-60
2023/12/21 03:36:43;;;;;;;12.20;3.08;;;;;;;9.71;100.00;99717.16;10537389;28;20039;-61
2023/12/21 03:42:05;;;;;;;11.63;2.95;;;;;;;9.75;100.00;99698.88;10536771;28;20055;-60
2023/12/21 03:47:27;;;;;;;12.07;3.13;;;;;;;9.70;100.00;99694.84;10544863;28;20052;-61
2023/12/21 03:52:48;;;;;;;15.55;3.22;;;;;;;9.76;100.00;99679.06;10541501;28;20104;-60
2023/12/21 03:58:10;;;;;;;18.35;3.40;;;;;;;9.76;100.00;99668.75;10534990;28;20052;-60
2023/12/21 04:03:32;;;;;;;16.60;3.38;;;;;;;9.79;100.00;99659.09;10530017;28;20132;-60
2023/12/21 04:08:54;;;;;;;17.88;3.40;;;;;;;9.78;100.00;99643.66;10534950;28;20121;-60
2023/12/21 04:14:15;;;;;;;14.30;3.05;;;;;;;9.77;100.00;99639.41;10540432;27;20055;-61
2023/12/21 04:19:37;;;;;;;8.80;3.08;;;;;;;9.78;100.00;99621.25;10536451;28;20157;-61
2023/12/21 04:24:59;;;;;;;15.20;3.47;;;;;;;9.71;100.00;99608.69;10539895;28;20094;-61
2023/12/21 04:30:20;;;;;;;12.85;3.63;;;;;;;9.72;100.00;99592.28;10542158;28;20047;-61
2023/12/21 04:35:46;;;;;;;10.70;2.83;;;;;;;9.71;100.00;99560.44;10548449;28;20073;-60
2023/12/21 04:41:08;;;;;;;10.82;2.67;;;;;;;9.70;100.00;99557.94;10543270;28;20060;-60
2023/12/21 04:46:29;;;;;;;6.50;2.42;;;;;;;9.70;100.00;99551.03;10533252;27;20059;-61
2023/12/21 04:51:51;;;;;;;8.63;2.50;;;;;;;9.68;100.00;99531.34;10547120;27;20059;-60
2023/12/21 04:57:13;;;;;;;3.97;2.15;;;;;;;9.69;100.00;99535.59;10539525;28;20055;-60
2023/12/21 05:02:34;;;;;;;6.03;1.80;;;;;;;9.70;100.00;99514.03;10531344;28;20051;-60
2023/12/21 05:07:56;;;;;;;4.03;1.73;;;;;;;9.67;100.00;99493.53;10544620;27;20052;-60
2023/12/21 05:13:18;;;;;;;3.67;1.63;;;;;;;9.71;100.00;99476.94;10544827;28;20063;-61
2023/12/21 05:18:40;;;;;;;3.28;1.60;;;;;;;9.67;100.00;99447.03;10530646;27;20065;-60
2023/12/21 05:24:02;;;;;;;3.67;1.23;;;;;;;9.67;100.00;99452.22;10545693;28;20055;-61
2023/12/21 05:29:23;;;;;;;1.73;0.90;;;;;;;9.69;100.00;99442.59;10535219;28;20052;-60
2023/12/21 05:34:45;;;;;;;2.42;1.20;;;;;;;9.69;100.00;99425.38;10545930;28;20043;-60
2023/12/21 05:40:07;;;;;;;2.13;1.15;;;;;;;9.68;100.00;99402.22;10529946;27;20048;-60
2023/12/21 05:45:29;;;;;;;1.50;0.90;;;;;;;9.68;100.00;99384.97;10534936;28;20568;-60
2023/12/21 05:50:51;;;;;;;3.17;1.35;;;;;;;9.67;100.00;99370.38;10541160;27;20063;-60
2023/12/21 05:56:13;;;;;;;5.97;1.50;;;;;;;9.68;100.00;99340.22;10537473;28;20056;-60
2023/12/21 06:01:34;;;;;;;4.93;1.33;;;;;;;9.72;100.00;99305.59;10528354;28;20177;-60
2023/12/21 06:06:56;;;;;;;3.10;1.27;;;;;;;9.72;100.00;99290.94;10539583;28;20048;-61
2023/12/21 06:12:18;;;;;;;1.58;1.48;;;;;;;9.71;100.00;99267.75;10532841;28;20501;-61
2023/12/21 06:17:40;;;;;;;2.78;1.42;;;;;;;9.72;100.00;99259.94;10540358;27;20044;-63
2023/12/21 06:23:02;;;;;;;4.38;1.70;;;;;;;9.75;100.00;99238.25;10537852;28;20265;-61
2023/12/21 06:28:23;;;;;;;3.22;1.63;;;;;;;9.70;100.00;99212.69;10541540;28;20057;-61
2023/12/21 06:33:45;;;;;;;2.38;1.30;;;;;;;9.77;100.00;99189.94;10538107;28;20059;-61
2023/12/21 06:39:08;;;;;;;2.42;1.17;;;;;;;9.75;100.00;99165.94;10539442;27;20055;-61
2023/12/21 06:44:30;;;;;;;2.83;1.00;;;;;;;9.73;100.00;99155.69;10530318;27;20048;-60
2023/12/21 06:49:52;;;;;;;1.10;0.90;;;;;;;9.72;100.00;99124.78;10524610;28;20039;-60
2023/12/21 06:55:14;;;;;;;3.95;0.90;;;;;;;9.77;100.00;99112.47;10534890;28;20055;-61
2023/12/21 07:00:36;;;;;;;1.58;0.80;;;;;;;9.74;100.00;99086.81;10536860;27;20077;-61
2023/12/21 07:05:58;;;;;;;1.67;0.80;;;;;;;9.76;100.00;99095.31;10538533;27;20097;-61
2023/12/21 07:11:19;;;;;;;1.30;0.80;;;;;;;9.73;100.00;99085.13;10526817;28;20120;-61
2023/12/21 07:16:41;;;;;;;1.77;0.80;;;;;;;9.78;100.00;99077.94;10538394;28;20079;-61
2023/12/21 07:22:04;;;;;;;1.85;0.95;;;;;;;9.78;100.00;99088.28;10541566;28;20043;-62
2023/12/21 07:27:26;;;;;;;1.27;0.80;;;;;;;9.84;100.00;99093.13;10540001;28;20436;-62
2023/12/21 07:32:48;;;;;;;3.53;1.00;;;;;;;9.85;100.00;99071.56;10537361;28;20074;-62
2023/12/21 07:38:10;;;;;;;5.43;1.30;;;;;;;9.93;100.00;99087.44;10541224;28;20059;-61
2023/12/21 07:43:31;;;;;;;4.32;1.30;;;;;;;9.86;100.00;99070.63;10528310;28;20082;-61
2023/12/21 07:48:53;;;;;;;6.93;1.90;;;;;;;9.85;100.00;99053.47;10544317;27;20131;-61
2023/12/21 07:54:15;;;;;;;7.05;1.48;;;;;;;9.90;100.00;99039.38;10547905;28;20130;-59
2023/12/21 07:59:37;;;;;;;8.27;1.85;;;;;;;9.93;100.00;99030.63;10541806;28;20050;-59
2023/12/21 08:04:58;;;;;;;4.43;1.20;;;;;;;9.95;100.00;99021.03;10539674;27;20044;-60
2023/12/21 08:10:20;;;;;;;7.20;1.50;;;;;;;9.95;100.00;98997.78;10541599;28;20124;-60
2023/12/21 08:15:42;;;;;;;4.85;1.23;;;;;;;9.97;100.00;98998.53;10549997;28;20132;-61
2023/12/21 08:21:04;;;;;;;6.70;1.50;;;;;;;10.00;100.00;99001.75;10550767;27;20048;-61
2023/12/21 08:26:25;;;;;;;2.97;1.00;;;;;;;10.05;100.00;98957.59;10536637;28;20606;-61
2023/12/21 08:31:47;;;;;;;2.65;0.88;;;;;;;10.05;100.00;98949.84;10539447;27;20043;-60
2023/12/21 08:37:09;;;;;;;5.80;1.00;;;;;;;10.04;100.00;98919.72;10531614;22;20051;-60
2023/12/21 08:42:31;;;;;;;4.38;0.80;;;;;;;10.07;100.00;98924.75;10502612;28;20131;-60
2023/12/21 08:47:54;;;;;;;4.85;0.85;;;;;;;10.09;100.00;98912.56;10494742;28;20048;-61
2023/12/21 08:53:16;;;;;;;1.17;0.68;;;;;;;10.02;100.00;98911.22;10507378;28;20443;-61
2023/12/21 08:58:37;;;;;;;4.05;0.95;;;;;;;10.11;100.00;98877.13;10510560;28;20053;-61
2023/12/21 09:04:00;;;;;;;2.00;0.57;;;;;;;10.09;100.00;98891.88;10502012;28;20063;-61
2023/12/21 09:09:22;;;;;;;3.20;0.90;;;;;;;10.03;100.00;98866.41;10501313;28;20060;-61
2023/12/21 09:14:44;;;;;;;1.95;0.60;;;;;;;10.09;100.00;98860.88;10493298;28;20401;-61
2023/12/21 09:20:08;;;;;;;1.75;0.63;;;;;;;10.02;100.00;98846.63;10484111;28;20040;-61
2023/12/21 09:25:30;;;;;;;1.33;0.60;;;;;;;10.03;100.00;98833.63;10500971;28;20056;-61
2023/12/21 09:30:51;;;;;;;2.75;0.40;;;;;;;10.05;100.00;98820.63;10493452;28;20047;-61
2023/12/21 09:36:15;;;;;;;0.40;0.38;;;;;;;10.09;100.00;98814.38;10494707;28;20629;-61
2023/12/21 09:41:37;;;;;;;4.05;0.60;;;;;;;10.13;100.00;98799.53;10498346;28;20114;-60
2023/12/21 09:47:16;;;;;;;0.63;0.40;;;;;;;10.16;100.00;98779.50;10498363;28;20511;-61
2023/12/21 09:52:39;;;;;;;0.98;0.50;;;;;;;10.13;100.00;98779.66;10498111;28;20053;-60
2023/12/21 09:58:02;;;;;;;0.82;0.50;;;;;;;10.15;100.00;98759.75;10491268;28;20091;-61
2023/12/21 10:03:24;;;;;;;1.15;0.40;;;;;;;10.20;100.00;98755.09;10488640;28;20063;-62
2023/12/21 10:08:46;;;;;;;4.45;0.50;;;;;;;10.23;100.00;98729.09;10490733;28;20180;-61
2023/12/21 10:14:19;;;;;;;1.45;0.63;;;;;;;10.25;100.00;98713.47;10506708;28;20148;-61
2023/12/21 10:19:44;;;;;;;2.13;0.43;;;;;;;10.28;100.00;98721.88;10494581;28;20056;-61
2023/12/21 10:25:07;;;;;;;7.97;1.60;;;;;;;10.28;100.00;98701.19;10504472;28;20052;-62
2023/12/21 10:30:29;;;;;;;0.70;0.52;;;;;;;10.29;100.00;98671.00;10488792;28;20048;-62
2023/12/21 10:35:52;;;;;;;2.90;0.60;;;;;;;10.35;100.00;98679.19;10509119;28;20056;-62
2023/12/21 10:41:14;;;;;;;3.75;0.98;;;;;;;10.36;100.00;98669.69;10508436;28;20041;-62
2023/12/21 10:46:38;;;;;;;6.88;0.90;;;;;;;10.45;100.00;98659.59;10491117;28;20071;-62
2023/12/21 10:52:01;;;;;;;5.13;0.90;;;;;;;10.54;100.00;98677.09;10481432;28;20451;-62
2023/12/21 10:57:23;;;;;;;2.30;0.68;;;;;;;10.59;100.00;98648.34;10501426;28;20063;-60
2023/12/21 11:02:46;;;;;;;9.00;2.00;;;;;;;10.59;100.00;98651.78;10485514;28;20143;-60
2023/12/21 11:08:10;;;;;;;12.40;2.10;;;;;;;10.71;100.00;98643.19;10486167;28;20143;-61
2023/12/21 11:13:32;;;;;;;15.90;1.63;;;;;;;10.78;100.00;98641.03;10483998;28;20067;-60
2023/12/21 11:18:57;;;;;;;18.77;2.08;;;;;;;10.89;100.00;98605.78;10493777;28;20926;-60
2023/12/21 11:24:25;;;;;;;15.43;2.25;;;;;;;10.92;100.00;98631.44;10470396;28;20076;-60
2023/12/21 11:29:47;;;;;;;14.25;1.80;;;;;;;10.93;100.00;98640.84;10495593;28;20283;-61
2023/12/21 11:35:25;;;;;;;19.85;2.08;;;;;;;10.85;100.00;98617.25;10492467;28;20405;-61
2023/12/21 11:40:49;;;;;;;16.92;2.20;;;;;;;10.80;100.00;98616.75;10500006;28;20055;-61
2023/12/21 11:46:11;;;;;;;17.35;2.47;;;;;;;10.90;100.00;98612.59;10502169;28;20059;-60
2023/12/21 11:51:34;;;;;;;20.00;3.30;;;;;;;10.90;100.00;98594.50;10489947;28;20041;-61
2023/12/21 11:57:10;;;;;;;17.30;2.90;;;;;;;10.92;100.00;98600.41;10495408;28;20063;-61
2023/12/21 12:02:34;;;;;;;30.08;3.15;;;;;;;10.89;100.00;98605.78;10488885;28;20044;-60
2023/12/21 12:07:56;;;;;;;22.60;3.65;;;;;;;10.98;100.00;98575.88;10509655;28;20075;-61
2023/12/21 12:13:19;;;;;;;19.83;2.90;;;;;;;11.05;100.00;98595.22;10495856;28;20121;-60
2023/12/21 12:18:40;;;;;;;18.42;2.90;;;;;;;10.92;100.00;98574.53;10496183;28;20052;-61
2023/12/21 12:24:02;;;;;;;25.98;3.70;;;;;;;10.89;100.00;98657.53;10490036;28;20040;-60
2023/12/21 12:29:30;;;;;;;10.32;1.35;;;;;;;9.53;100.00;98721.34;10489219;28;20054;-60
2023/12/21 12:34:53;;;;;;;7.10;1.25;;;;;;;8.50;100.00;98711.88;10494468;28;20055;-60
2023/12/21 12:40:15;;;;;;;9.88;1.40;;;;;;;8.19;100.00;98722.19;10513990;28;20041;-60
2023/12/21 12:45:37;;;;;;;7.13;1.30;;;;;;;7.97;100.00;98713.94;10489106;28;20052;-60
2023/12/21 12:50:58;;;;;;;11.35;1.30;;;;;;;7.89;100.00;98705.81;10505739;28;20043;-59
2023/12/21 12:56:43;;;;;;;8.93;1.35;;;;;;;-141.81;100.00;60461.28;10497588;28;20063;-58
2023/12/21 13:03:03;;;;;;;10.23;1.50;;;;;;;-141.81;100.00;60461.28;10484353;28;20050;-59
2023/12/21 13:09:27;;;;;;;10.68;1.55;;;;;;;-141.81;100.00;60461.28;10484929;28;20055;-59
2023/12/21 13:15:47;;;;;;;7.40;1.50;;;;;;;-141.81;100.00;60461.28;10493527;28;20060;-58
2023/12/21 13:22:07;;;;;;;9.48;1.92;;;;;;;-141.81;100.00;60461.28;10498261;28;20040;-62
2023/12/21 13:28:27;;;;;;;15.65;2.00;;;;;;;-141.81;100.00;60461.28;10502845;28;20093;-62
2023/12/21 13:34:52;;;;;;;23.33;2.85;;;;;;;-141.81;100.00;60461.28;10492860;28;20044;-61
2023/12/21 13:41:12;;;;;;;20.95;3.00;;;;;;;-141.81;100.00;60461.28;10520716;28;20044;-61
2023/12/21 13:47:34;;;;;;;26.80;2.90;;;;;;;-141.81;100.00;60461.28;10503414;28;20113;-62
2023/12/21 13:53:54;;;;;;;26.65;2.53;;;;;;;-141.81;100.00;60461.28;10492990;28;20043;-62
2023/12/21 14:00:16;;;;;;;18.73;2.70;;;;;;;-141.81;100.00;60461.28;10514187;28;20123;-62
2023/12/21 14:06:36;;;;;;;32.03;3.58;;;;;;;-141.81;100.00;60461.28;10504940;28;20058;-62
2023/12/21 14:12:59;;;;;;;25.40;3.03;;;;;;;-141.81;100.00;60461.28;10503195;28;20086;-62
2023/12/21 14:19:19;;;;;;;28.02;3.35;;;;;;;-141.81;100.00;60461.28;10499875;28;20487;-62
2023/12/21 14:25:40;;;;;;;20.52;3.17;;;;;;;-141.81;100.00;60461.28;10489919;28;20508;-62
2023/12/21 14:32:00;;;;;;;25.38;3.53;;;;;;;-141.81;100.00;60461.28;10491699;28;20048;-62
2023/12/21 14:38:20;;;;;;;31.75;3.72;;;;;;;-141.81;100.00;60461.28;10496586;28;20066;-59
2023/12/21 14:44:40;;;;;;;27.60;3.83;;;;;;;-141.81;100.00;60461.28;10499633;28;20068;-60
2023/12/21 14:51:03;;;;;;;39.05;5.05;;;;;;;-141.81;100.00;60461.28;10502028;28;20225;-62
2023/12/21 14:57:23;;;;;;;34.08;4.40;;;;;;;-141.81;100.00;60461.28;10491481;28;20052;-60
2023/12/21 15:03:44;;;;;;;33.75;3.67;;;;;;;-141.81;100.00;60461.28;10484225;28;20035;-61
2023/12/21 15:10:05;;;;;;;15.30;2.10;;;;;;;-141.81;100.00;60461.28;10489071;28;20066;-60
2023/12/21 15:16:27;;;;;;;11.60;2.33;;;;;;;-141.81;100.00;60461.28;10493191;28;20052;-60
2023/12/21 15:22:48;;;;;;;15.68;2.10;;;;;;;-141.81;100.00;60461.28;10494935;28;20113;-60
2023/12/21 15:29:08;;;;;;;20.75;2.67;;;;;;;-141.81;100.00;60461.28;10494366;28;20138;-60
2023/12/21 15:35:28;;;;;;;22.13;3.22;;;;;;;-141.81;100.00;60461.28;10482710;28;20428;-60
2023/12/21 15:41:49;;;;;;;35.90;4.97;;;;;;;-141.81;100.00;60461.28;10491974;28;20237;-61
2023/12/21 15:48:10;;;;;;;38.30;5.18;;;;;;;-141.81;100.00;60461.28;10494217;28;20044;-61
2023/12/21 15:54:30;;;;;;;46.45;6.55;;;;;;;-141.81;100.00;60461.28;10514843;28;20056;-61
2023/12/21 16:00:51;;;;;;;43.65;6.82;;;;;;;-141.81;100.00;60461.28;10491572;28;20090;-60
2023/12/21 16:07:11;;;;;;;50.50;7.00;;;;;;;-141.81;100.00;60461.28;10495395;28;20044;-61
2023/12/21 16:13:31;;;;;;;56.95;7.13;;;;;;;-141.81;100.00;60461.28;10502543;28;20133;-61
2023/12/21 16:19:52;;;;;;;47.83;6.88;;;;;;;-141.81;100.00;60461.28;10494273;28;20117;-61
2023/12/21 16:26:12;;;;;;;44.90;7.88;;;;;;;-141.81;100.00;60461.28;10497235;28;20063;-61
2023/12/21 16:32:33;;;;;;;43.78;6.50;;;;;;;-141.81;100.00;60461.28;10492607;28;20040;-61
2023/12/21 16:38:54;;;;;;;48.00;7.22;;;;;;;-141.81;100.00;60461.28;10502574;28;20697;-60
2023/12/21 16:45:14;;;;;;;45.13;6.25;;;;;;;-141.81;100.00;60461.28;10498928;28;20067;-62
2023/12/21 16:51:34;;;;;;;36.58;4.95;;;;;;;-141.81;100.00;60461.28;10492673;28;20048;-60
2023/12/21 16:57:54;;;;;;;43.22;5.93;;;;;;;-141.81;100.00;60461.28;10503902;28;20048;-61
2023/12/21 17:04:15;;;;;;;30.55;4.70;;;;;;;-141.81;100.00;60461.28;10492258;28;20181;-61
2023/12/21 17:10:35;;;;;;;46.10;6.13;;;;;;;-141.81;100.00;60461.28;10494847;28;20459;-61
2023/12/21 17:16:57;;;;;;;41.28;5.72;;;;;;;-141.81;100.00;60461.28;10495368;28;20501;-61
2023/12/21 17:23:20;;;;;;;26.80;4.30;;;;;;;-141.81;100.00;60461.28;10500756;28;20492;-60
2023/12/21 17:29:40;;;;;;;29.40;5.18;;;;;;;-141.81;100.00;60461.28;10512359;28;20032;-60
2023/12/21 17:36:02;;;;;;;42.40;5.85;;;;;;;-141.81;100.00;60461.28;10492195;28;20048;-60
2023/12/21 17:42:23;;;;;;;36.33;4.50;;;;;;;-141.81;100.00;60461.28;10496175;28;20501;-60
2023/12/21 17:48:43;;;;;;;33.70;4.70;;;;;;;-141.81;100.00;60461.28;10490366;28;20511;-61
2023/12/21 17:55:03;;;;;;;33.90;4.50;;;;;;;-141.81;100.00;60461.28;10495127;28;20140;-61
2023/12/21 18:01:23;;;;;;;29.27;4.40;;;;;;;-141.81;100.00;60461.28;10476035;28;20416;-61
2023/12/21 18:07:43;;;;;;;30.00;4.65;;;;;;;-141.81;100.00;60461.28;10489293;28;20056;-60
2023/12/21 18:14:03;;;;;;;26.20;4.70;;;;;;;-141.81;100.00;60461.28;10501170;28;20105;-61
2023/12/21 18:20:23;;;;;;;35.47;5.13;;;;;;;-141.81;100.00;60461.28;10494623;28;20044;-61
2023/12/21 18:26:44;;;;;;;38.80;5.55;;;;;;;-141.81;100.00;60461.28;10493439;28;20058;-61
2023/12/21 18:33:05;;;;;;;38.47;6.18;;;;;;;-141.81;100.00;60461.28;10496067;28;20047;-60
2023/12/21 18:39:25;;;;;;;39.10;6.07;;;;;;;-141.81;100.00;60461.28;10497209;28;20135;-60
2023/12/21 18:45:48;;;;;;;46.13;6.60;;;;;;;-141.81;100.00;60461.28;10492260;28;20044;-61
2023/12/21 18:52:09;;;;;;;39.22;6.85;;;;;;;-141.81;100.00;60461.28;10495678;28;20048;-61
2023/12/21 18:58:29;;;;;;;41.60;6.47;;;;;;;-141.81;100.00;60461.28;10499330;28;20048;-61
2023/12/21 19:04:49;;;;;;;41.90;6.15;;;;;;;-141.81;100.00;60461.28;10486094;28;20600;-61
2023/12/21 19:11:17;;;;;;;42.13;5.75;;;;;;;-141.81;100.00;60461.28;10492036;28;20123;-61
2023/12/21 19:17:41;;;;;;;20.88;3.40;;;;;;;-141.81;100.00;60461.28;10488491;28;20052;-61
2023/12/21 19:24:01;;;;;;;24.15;3.90;;;;;;;-141.81;100.00;60461.28;10487099;28;20048;-60
2023/12/21 19:30:21;;;;;;;21.23;3.22;;;;;;;-141.81;100.00;60461.28;10487082;28;20047;-60
2023/12/21 19:36:41;;;;;;;21.42;2.97;;;;;;;-141.81;100.00;60461.28;10482436;28;20176;-61
2023/12/21 19:43:02;;;;;;;16.48;3.65;;;;;;;-141.81;100.00;60461.28;10488938;28;20033;-60
2023/12/21 19:49:22;;;;;;;23.75;3.75;;;;;;;-141.81;100.00;60461.28;10503328;28;20040;-61
2023/12/21 19:55:42;;;;;;;30.25;4.72;;;;;;;-141.81;100.00;60461.28;10506489;28;20485;-61
2023/12/21 20:02:06;;;;;;;37.42;4.40;;;;;;;-141.81;100.00;60461.28;10477903;28;20041;-61
2023/12/21 20:08:26;;;;;;;37.78;4.95;;;;;;;-141.81;100.00;60461.28;10486487;28;20063;-61
2023/12/21 20:14:46;;;;;;;23.50;4.43;;;;;;;-141.81;100.00;60461.28;10489650;28;20044;-61
2023/12/21 20:21:07;;;;;;;23.58;3.55;;;;;;;-141.81;100.00;60461.28;10525710;28;20059;-61
2023/12/21 20:27:27;;;;;;;22.67;4.00;;;;;;;-141.81;100.00;60461.28;10520629;28;20052;-61
2023/12/21 20:33:48;;;;;;;25.73;3.92;;;;;;;-141.81;100.00;60461.28;10522373;28;20036;-60
2023/12/21 20:40:09;;;;;;;19.15;3.03;;;;;;;-141.81;100.00;60461.28;10507254;28;20048;-62
2023/12/21 20:46:30;;;;;;;18.77;3.17;;;;;;;-141.81;100.00;60461.28;10516243;28;20056;-60
2023/12/21 20:52:52;;;;;;;28.25;3.75;;;;;;;-141.81;100.00;60461.28;10517436;28;20424;-62
2023/12/21 20:59:13;;;;;;;22.35;2.92;;;;;;;-141.81;100.00;60461.28;10502251;28;20052;-61
2023/12/21 21:05:33;;;;;;;22.65;2.72;;;;;;;-141.81;100.00;60461.28;10526840;28;20058;-61
2023/12/21 21:11:53;;;;;;;20.10;3.15;;;;;;;-141.81;100.00;60461.28;10510374;28;20469;-61
2023/12/21 21:18:13;;;;;;;27.17;3.00;;;;;;;-141.81;100.00;60461.28;10522980;27;20381;-63
2023/12/21 21:24:33;;;;;;;14.82;3.03;;;;;;;-141.81;100.00;60461.28;10517787;28;20094;-61
2023/12/21 21:30:53;;;;;;;10.18;2.20;;;;;;;-141.81;100.00;60461.28;10515176;28;20499;-61
2023/12/21 21:37:24;;;;;;;14.98;2.25;;;;;;;-141.81;100.00;60461.28;10512685;28;20056;-61
2023/12/21 21:43:44;;;;;;;15.15;2.28;;;;;;;-141.81;100.00;60461.28;10523455;28;20109;-61
2023/12/21 21:50:05;;;;;;;17.40;2.65;;;;;;;-141.81;100.00;60461.28;10515257;28;20412;-61
2023/12/21 21:56:25;;;;;;;13.85;2.50;;;;;;;-141.81;100.00;60461.28;10492158;28;20517;-62
2023/12/21 22:02:45;;;;;;;18.67;2.47;;;;;;;-141.81;100.00;60461.28;10499409;28;20523;-62
2023/12/21 22:09:06;;;;;;;15.77;2.00;;;;;;;-141.81;100.00;60461.28;10497892;28;20052;-62
2023/12/21 22:15:26;;;;;;;12.60;1.67;;;;;;;-141.81;100.00;60461.28;10500980;28;20404;-63
2023/12/21 22:21:46;;;;;;;9.80;1.55;;;;;;;-141.81;100.00;60461.28;10495399;28;20040;-62
2023/12/21 22:28:06;;;;;;;6.50;1.38;;;;;;;-141.81;100.00;60461.28;10496008;28;20511;-63
2023/12/21 22:34:28;;;;;;;8.00;1.40;;;;;;;-141.81;100.00;60461.28;10493206;28;20052;-62
2023/12/21 22:40:48;;;;;;;14.48;2.17;;;;;;;-141.81;100.00;60461.28;10499798;28;20055;-62
2023/12/21 22:46:13;;;;;;;15.32;2.00;;;;;;;7.89;100.00;98705.81;10497777;28;20052;-62
2023/12/21 22:52:36;;;;;;;13.80;1.80;;;;;;;-141.81;100.00;60461.28;10491793;28;20098;-62
2023/12/21 22:58:01;;;;;;;13.07;1.95;;;;;;;7.89;100.00;98705.81;10496776;28;20493;-61
2023/12/21 23:04:21;;;;;;;13.18;2.28;;;;;;;-141.81;100.00;60461.28;10483812;28;20056;-61
2023/12/21 23:10:43;;;;;;;14.15;2.13;;;;;;;-141.81;100.00;60461.28;10507402;28;20131;-61
2023/12/21 23:17:03;;;;;;;24.45;2.72;;;;;;;-141.81;100.00;60461.28;10492122;28;20056;-62
2023/12/21 23:23:24;;;;;;;15.38;2.05;;;;;;;-141.81;100.00;60461.28;10496125;28;20037;-62
2023/12/21 23:29:44;;;;;;;10.48;1.67;;;;;;;-141.81;100.00;60461.28;10501002;28;20492;-62
2023/12/21 23:36:04;;;;;;;10.10;1.58;;;;;;;-141.81;100.00;60461.28;10495201;28;20051;-63
2023/12/21 23:42:26;;;;;;;11.65;1.63;;;;;;;-141.81;100.00;60461.28;10503272;28;20044;-62
2023/12/21 23:47:47;;;;;;;13.18;1.45;;;;;;;6.08;86.71;99372.16;10485993;28;20056;-62
2023/12/21 23:53:37;;;;;;;15.30;2.20;;;;;;;6.08;86.71;99372.16;10485715;28;20059;-62
2023/12/21 23:58:58;;;;;;;8.52;2.17;;;;;;;6.07;87.78;99414.13;10498830;28;20062;-62
